Time;durP1;ratioP1;P1;durP2;ratioP2;P2;SDS_P1;SDS_P2;PMS_P1;PMS_P2;Temp;Humidity;BMP_temperature;BMP_pressure;BME280_temperature;BME280_humidity;BME280_pressure;Samples;Min_cycle;Max_cycle;Signal;HPM_P1;HPM_P2
2021/11/20 00:01:43;;;;;;;;;;;20.20;36.70;;;;;;478817;247;1208;-75
2021/11/20 00:03:44;;;;;;;;;;;20.20;36.60;;;;;;478901;247;1216;-75
2021/11/20 00:05:45;;;;;;;;;;;20.10;36.70;;;;;;478956;247;949;-75
2021/11/20 00:07:47;;;;;;;;;;;20.00;36.70;;;;;;478954;247;1126;-75
2021/11/20 00:09:48;;;;;;;;;;;20.00;36.90;;;;;;478860;247;2185;-75
2021/11/20 00:11:49;;;;;;;;;;;20.10;36.70;;;;;;478797;247;1171;-75
2021/11/20 00:13:51;;;;;;;;;;;20.00;36.80;;;;;;478927;247;1030;-75
2021/11/20 00:15:52;;;;;;;;;;;20.00;36.80;;;;;;478863;247;1038;-75
2021/11/20 00:17:53;;;;;;;;;;;20.00;36.80;;;;;;478886;247;1112;-76
2021/11/20 00:19:55;;;;;;;;;;;20.10;36.80;;;;;;478866;247;938;-76
2021/11/20 00:21:56;;;;;;;;;;;20.10;36.70;;;;;;478772;247;972;-76
2021/11/20 00:23:58;;;;;;;;;;;20.10;36.70;;;;;;478916;247;1002;-75
2021/11/20 00:25:59;;;;;;;;;;;20.40;36.40;;;;;;478849;247;1125;-75
2021/11/20 00:28:00;;;;;;;;;;;20.30;36.50;;;;;;478845;247;1382;-76
2021/11/20 00:30:03;;;;;;;;;;;20.30;36.40;;;;;;478910;247;2190;-75
2021/11/20 00:32:03;;;;;;;;;;;20.20;36.70;;;;;;478906;248;1377;-75
2021/11/20 00:34:04;;;;;;;;;;;20.30;36.40;;;;;;478962;247;946;-75
2021/11/20 00:36:06;;;;;;;;;;;20.20;36.70;;;;;;478936;247;1075;-75
2021/11/20 00:38:07;;;;;;;;;;;20.10;36.80;;;;;;478913;247;968;-75
2021/11/20 00:40:08;;;;;;;;;;;20.00;36.90;;;;;;478911;247;1231;-75
2021/11/20 00:42:10;;;;;;;;;;;20.10;36.70;;;;;;478837;247;1153;-75
2021/11/20 00:44:11;;;;;;;;;;;20.20;36.80;;;;;;478907;247;943;-75
2021/11/20 00:46:12;;;;;;;;;;;20.10;36.80;;;;;;478927;247;1320;-75
2021/11/20 00:48:14;;;;;;;;;;;20.20;36.90;;;;;;478861;247;961;-75
2021/11/20 00:50:15;;;;;;;;;;;20.10;36.90;;;;;;478914;247;2174;-75
2021/11/20 00:52:16;;;;;;;;;;;20.30;36.30;;;;;;478869;247;1100;-75
2021/11/20 00:54:18;;;;;;;;;;;20.10;36.70;;;;;;479003;247;985;-75
2021/11/20 00:56:19;;;;;;;;;;;20.10;36.80;;;;;;478994;247;1304;-75
2021/11/20 00:58:20;;;;;;;;;;;20.10;36.90;;;;;;478905;247;1000;-76
2021/11/20 01:00:22;;;;;;;;;;;20.10;36.70;;;;;;478885;247;1067;-75
2021/11/20 01:02:23;;;;;;;;;;;20.10;36.70;;;;;;478854;247;968;-75
2021/11/20 01:04:24;;;;;;;;;;;20.40;36.50;;;;;;478981;247;1049;-75
2021/11/20 01:06:26;;;;;;;;;;;20.20;36.70;;;;;;478953;247;974;-75
2021/11/20 01:08:27;;;;;;;;;;;20.50;36.30;;;;;;478901;247;969;-75
2021/11/20 01:10:28;;;;;;;;;;;20.30;36.30;;;;;;478905;247;2183;-75
2021/11/20 01:12:30;;;;;;;;;;;20.30;36.50;;;;;;478907;247;958;-75
2021/11/20 01:14:31;;;;;;;;;;;20.50;36.30;;;;;;478930;247;931;-75
2021/11/20 01:16:32;;;;;;;;;;;20.50;36.40;;;;;;478961;247;999;-75
2021/11/20 01:18:34;;;;;;;;;;;20.30;36.40;;;;;;478929;247;1135;-75
2021/11/20 01:20:35;;;;;;;;;;;20.20;36.70;;;;;;478953;247;1104;-75
2021/11/20 01:22:37;;;;;;;;;;;20.40;36.50;;;;;;478968;247;1139;-75
2021/11/20 01:24:38;;;;;;;;;;;20.60;36.20;;;;;;478897;247;952;-75
2021/11/20 01:26:39;;;;;;;;;;;20.50;36.20;;;;;;478761;247;1146;-75
2021/11/20 01:28:41;;;;;;;;;;;20.30;36.40;;;;;;479018;247;1540;-75
2021/11/20 01:30:42;;;;;;;;;;;20.20;36.60;;;;;;478903;247;2127;-75
2021/11/20 01:32:43;;;;;;;;;;;20.30;36.60;;;;;;478902;247;1152;-75
2021/11/20 01:34:45;;;;;;;;;;;20.60;36.30;;;;;;478943;247;1027;-75
2021/11/20 01:36:47;;;;;;;;;;;20.60;36.00;;;;;;478877;247;1158;-75
2021/11/20 01:38:48;;;;;;;;;;;20.70;36.10;;;;;;478976;247;968;-75
2021/11/20 01:40:49;;;;;;;;;;;20.70;36.00;;;;;;478855;247;1194;-75
2021/11/20 01:42:51;;;;;;;;;;;20.50;36.00;;;;;;479047;247;1130;-75
2021/11/20 01:44:52;;;;;;;;;;;20.40;36.20;;;;;;478969;247;947;-75
2021/11/20 01:46:53;;;;;;;;;;;20.20;36.70;;;;;;478949;247;1308;-75
2021/11/20 01:48:55;;;;;;;;;;;20.60;36.30;;;;;;478924;247;1132;-75
2021/11/20 01:50:56;;;;;;;;;;;20.50;35.90;;;;;;478857;247;2123;-75
2021/11/20 01:52:58;;;;;;;;;;;20.50;36.10;;;;;;478860;247;1117;-75
2021/11/20 01:54:59;;;;;;;;;;;20.50;36.20;;;;;;478882;247;989;-75
2021/11/20 01:57:00;;;;;;;;;;;20.30;36.40;;;;;;478842;247;1304;-75
2021/11/20 01:59:02;;;;;;;;;;;20.60;36.10;;;;;;478858;247;1034;-75
2021/11/20 02:01:03;;;;;;;;;;;20.60;36.10;;;;;;478846;247;1228;-75
2021/11/20 02:03:04;;;;;;;;;;;20.30;36.50;;;;;;478902;247;1107;-75
2021/11/20 02:05:06;;;;;;;;;;;20.60;35.90;;;;;;479059;247;1088;-75
2021/11/20 02:07:07;;;;;;;;;;;21.10;35.50;;;;;;478967;247;1195;-75
2021/11/20 02:09:08;;;;;;;;;;;20.70;35.70;;;;;;478992;247;966;-75
2021/11/20 02:11:10;;;;;;;;;;;20.50;36.20;;;;;;478899;247;2119;-75
2021/11/20 02:13:11;;;;;;;;;;;20.50;36.20;;;;;;478917;247;958;-75
2021/11/20 02:15:12;;;;;;;;;;;20.40;36.40;;;;;;478928;247;1073;-75
2021/11/20 02:17:14;;;;;;;;;;;20.50;36.20;;;;;;478853;247;1274;-75
2021/11/20 02:19:15;;;;;;;;;;;20.30;36.40;;;;;;478972;247;987;-75
2021/11/20 02:21:16;;;;;;;;;;;20.10;36.70;;;;;;478948;247;1228;-75
2021/11/20 02:23:18;;;;;;;;;;;20.30;36.50;;;;;;478916;247;953;-75
2021/11/20 02:25:21;;;;;;;;;;;20.30;36.40;;;;;;478917;247;1006;-75
2021/11/20 02:27:20;;;;;;;;;;;20.20;36.70;;;;;;478781;248;1219;-75
2021/11/20 02:29:22;;;;;;;;;;;20.20;36.60;;;;;;478935;247;955;-75
2021/11/20 02:31:23;;;;;;;;;;;20.50;36.50;;;;;;478870;247;2115;-75
2021/11/20 02:33:24;;;;;;;;;;;20.30;36.20;;;;;;478911;247;1121;-75
2021/11/20 02:35:26;;;;;;;;;;;20.40;36.40;;;;;;478991;247;972;-75
2021/11/20 02:37:27;;;;;;;;;;;20.30;36.60;;;;;;478973;247;1159;-75
2021/11/20 02:39:28;;;;;;;;;;;20.30;36.50;;;;;;478973;247;970;-75
2021/11/20 02:41:30;;;;;;;;;;;20.10;36.70;;;;;;478937;247;1131;-75
2021/11/20 02:43:31;;;;;;;;;;;20.10;36.80;;;;;;478894;247;1212;-75
2021/11/20 02:45:32;;;;;;;;;;;20.10;36.80;;;;;;478909;247;959;-75
2021/11/20 02:47:34;;;;;;;;;;;20.10;36.70;;;;;;478979;247;1196;-75
2021/11/20 02:49:35;;;;;;;;;;;20.20;36.80;;;;;;478945;247;934;-75
2021/11/20 02:51:37;;;;;;;;;;;20.20;36.60;;;;;;478872;247;2187;-75
2021/11/20 02:53:38;;;;;;;;;;;20.00;36.80;;;;;;478926;247;982;-75
2021/11/20 02:55:40;;;;;;;;;;;20.20;36.60;;;;;;478876;247;1094;-75
2021/11/20 02:57:41;;;;;;;;;;;20.10;36.70;;;;;;478841;247;1142;-75
2021/11/20 02:59:42;;;;;;;;;;;20.10;36.80;;;;;;478875;247;966;-75
2021/11/20 03:01:44;;;;;;;;;;;20.10;36.70;;;;;;478842;247;1143;-75
2021/11/20 03:03:45;;;;;;;;;;;20.00;37.00;;;;;;478881;247;1169;-75
2021/11/20 03:05:46;;;;;;;;;;;20.40;36.50;;;;;;478896;247;964;-75
2021/11/20 03:07:48;;;;;;;;;;;20.40;36.20;;;;;;478897;247;1211;-75
2021/11/20 03:09:49;;;;;;;;;;;20.20;36.40;;;;;;478970;247;1137;-75
2021/11/20 03:11:50;;;;;;;;;;;20.10;36.70;;;;;;478911;247;2174;-75
2021/11/20 03:13:52;;;;;;;;;;;20.00;36.80;;;;;;478947;247;945;-75
2021/11/20 03:15:53;;;;;;;;;;;20.10;36.80;;;;;;478895;247;1219;-75
2021/11/20 03:17:54;;;;;;;;;;;20.10;36.80;;;;;;478900;247;1065;-75
2021/11/20 03:19:56;;;;;;;;;;;20.30;36.60;;;;;;478952;247;1031;-75
2021/11/20 03:21:57;;;;;;;;;;;20.20;36.60;;;;;;478889;247;1118;-75
2021/11/20 03:23:58;;;;;;;;;;;20.10;36.70;;;;;;478973;247;1254;-75
2021/11/20 03:26:00;;;;;;;;;;;20.20;36.60;;;;;;478931;247;1160;-75
2021/11/20 03:28:01;;;;;;;;;;;20.50;36.30;;;;;;478954;247;1083;-75
2021/11/20 03:30:02;;;;;;;;;;;20.40;36.20;;;;;;478906;247;969;-75
2021/11/20 03:32:04;;;;;;;;;;;20.40;36.30;;;;;;478871;247;2178;-75
2021/11/20 03:34:05;;;;;;;;;;;20.30;36.40;;;;;;478907;247;957;-75
2021/11/20 03:36:06;;;;;;;;;;;20.20;36.50;;;;;;478905;247;1035;-76
2021/11/20 03:38:08;;;;;;;;;;;20.20;36.60;;;;;;478832;247;955;-75
2021/11/20 03:40:09;;;;;;;;;;;20.10;36.80;;;;;;478913;247;952;-75
2021/11/20 03:42:11;;;;;;;;;;;20.20;36.60;;;;;;478904;247;1290;-75
2021/11/20 03:44:12;;;;;;;;;;;20.00;36.80;;;;;;478948;247;1111;-75
2021/11/20 03:46:13;;;;;;;;;;;20.10;36.90;;;;;;478852;247;1083;-76
2021/11/20 03:48:15;;;;;;;;;;;20.10;36.90;;;;;;479010;247;1032;-75
2021/11/20 03:50:16;;;;;;;;;;;20.20;36.70;;;;;;478982;247;2127;-75
2021/11/20 03:52:17;;;;;;;;;;;20.10;36.80;;;;;;478931;247;1053;-75
2021/11/20 03:54:19;;;;;;;;;;;20.20;36.80;;;;;;478925;247;993;-75
2021/11/20 03:56:20;;;;;;;;;;;20.10;36.80;;;;;;478918;247;1105;-75
2021/11/20 03:58:21;;;;;;;;;;;20.40;36.50;;;;;;478963;247;1160;-75
2021/11/20 04:00:23;;;;;;;;;;;20.30;36.50;;;;;;478945;247;1237;-75
2021/11/20 04:02:24;;;;;;;;;;;20.30;36.60;;;;;;478920;247;1114;-75
2021/11/20 04:04:25;;;;;;;;;;;20.20;36.70;;;;;;478975;247;1154;-76
2021/11/20 04:06:27;;;;;;;;;;;20.20;36.80;;;;;;478878;247;1256;-75
2021/11/20 04:08:28;;;;;;;;;;;20.10;37.00;;;;;;478934;247;1127;-75
2021/11/20 04:10:29;;;;;;;;;;;20.30;36.50;;;;;;478957;247;2131;-75
2021/11/20 04:12:31;;;;;;;;;;;20.10;36.60;;;;;;478935;247;1136;-75
2021/11/20 04:14:32;;;;;;;;;;;20.10;36.90;;;;;;478917;247;983;-75
2021/11/20 04:16:33;;;;;;;;;;;20.00;36.90;;;;;;478855;247;1234;-75
2021/11/20 04:18:35;;;;;;;;;;;20.10;36.80;;;;;;478903;247;1179;-75
2021/11/20 04:20:36;;;;;;;;;;;20.10;37.00;;;;;;478911;247;1214;-75
2021/11/20 04:22:37;;;;;;;;;;;20.20;36.90;;;;;;478890;247;1204;-76
2021/11/20 04:24:39;;;;;;;;;;;20.10;36.80;;;;;;478978;247;980;-75
2021/11/20 04:26:40;;;;;;;;;;;20.00;37.00;;;;;;478904;247;1193;-75
2021/11/20 04:28:41;;;;;;;;;;;20.00;37.00;;;;;;478903;247;1188;-76
2021/11/20 04:30:43;;;;;;;;;;;20.20;36.90;;;;;;478833;247;2186;-75
2021/11/20 04:32:44;;;;;;;;;;;20.10;37.00;;;;;;478846;247;1097;-75
2021/11/20 04:34:45;;;;;;;;;;;20.30;36.60;;;;;;478967;247;975;-75
2021/11/20 04:36:47;;;;;;;;;;;20.20;36.80;;;;;;478894;247;1191;-76
2021/11/20 04:38:48;;;;;;;;;;;20.30;36.80;;;;;;478959;247;1102;-75
2021/11/20 04:40:49;;;;;;;;;;;20.20;36.80;;;;;;478993;247;1147;-75
2021/11/20 04:42:52;;;;;;;;;;;20.20;36.90;;;;;;478916;247;1189;-75
2021/11/20 04:44:53;;;;;;;;;;;20.20;36.70;;;;;;478933;247;1054;-75
2021/11/20 04:46:54;;;;;;;;;;;20.20;36.80;;;;;;478941;247;1342;-75
2021/11/20 04:48:56;;;;;;;;;;;20.00;36.90;;;;;;478928;247;993;-75
2021/11/20 04:50:57;;;;;;;;;;;20.00;37.10;;;;;;478763;247;2120;-75
2021/11/20 04:52:58;;;;;;;;;;;20.10;37.00;;;;;;478830;247;1054;-75
2021/11/20 04:55:00;;;;;;;;;;;20.00;37.10;;;;;;478947;247;973;-75
2021/11/20 04:57:01;;;;;;;;;;;20.30;36.90;;;;;;478880;247;1194;-75
2021/11/20 04:59:02;;;;;;;;;;;20.10;36.90;;;;;;478959;247;1162;-75
2021/11/20 05:01:04;;;;;;;;;;;20.00;37.10;;;;;;478771;247;1229;-75
2021/11/20 05:03:07;;;;;;;;;;;19.90;37.20;;;;;;478873;247;1067;-75
2021/11/20 05:05:07;;;;;;;;;;;20.00;37.10;;;;;;478907;248;1532;-75
2021/11/20 05:07:09;;;;;;;;;;;20.10;37.00;;;;;;478836;247;1226;-75
2021/11/20 05:09:10;;;;;;;;;;;20.00;37.10;;;;;;478934;247;1082;-75
2021/11/20 05:11:11;;;;;;;;;;;20.20;36.90;;;;;;478888;247;2174;-75
2021/11/20 05:13:12;;;;;;;;;;;20.20;36.90;;;;;;478880;247;1201;-75
2021/11/20 05:15:14;;;;;;;;;;;20.10;37.00;;;;;;478948;247;1016;-75
2021/11/20 05:17:15;;;;;;;;;;;20.30;36.70;;;;;;478929;247;1134;-75
2021/11/20 05:19:17;;;;;;;;;;;20.20;36.60;;;;;;478974;247;988;-75
2021/11/20 05:21:18;;;;;;;;;;;20.20;36.80;;;;;;478990;247;1200;-75
2021/11/20 05:23:19;;;;;;;;;;;20.10;36.90;;;;;;478901;247;1036;-75
2021/11/20 05:25:21;;;;;;;;;;;20.00;37.00;;;;;;478954;247;951;-75
2021/11/20 05:27:22;;;;;;;;;;;20.00;37.10;;;;;;478896;247;1278;-75
2021/11/20 05:29:31;;;;;;;;;;;20.00;37.20;;;;;;479025;247;1192;-75
2021/11/20 05:31:27;;;;;;;;;;;20.00;37.20;;;;;;478512;248;2194;-75
2021/11/20 05:33:28;;;;;;;;;;;19.90;37.30;;;;;;478917;247;1104;-75
2021/11/20 05:35:29;;;;;;;;;;;20.00;37.20;;;;;;478930;247;1200;-75
2021/11/20 05:37:31;;;;;;;;;;;19.90;37.30;;;;;;478893;247;1113;-75
2021/11/20 05:39:32;;;;;;;;;;;20.00;37.20;;;;;;478982;247;1192;-75
2021/11/20 05:41:34;;;;;;;;;;;20.00;37.10;;;;;;478891;247;1139;-75
2021/11/20 05:43:35;;;;;;;;;;;20.10;37.10;;;;;;478869;247;1221;-75
2021/11/20 05:45:36;;;;;;;;;;;20.00;37.20;;;;;;478882;247;1358;-75
2021/11/20 05:47:37;;;;;;;;;;;20.00;37.20;;;;;;478797;247;1102;-75
2021/11/20 05:49:39;;;;;;;;;;;20.00;37.20;;;;;;478914;247;993;-75
2021/11/20 05:51:40;;;;;;;;;;;20.00;37.30;;;;;;478948;247;2120;-75
2021/11/20 05:53:41;;;;;;;;;;;19.90;37.30;;;;;;478899;247;963;-75
2021/11/20 05:55:43;;;;;;;;;;;20.10;37.20;;;;;;478908;247;996;-75
2021/11/20 05:57:44;;;;;;;;;;;19.90;37.30;;;;;;478912;247;959;-75
2021/11/20 05:59:45;;;;;;;;;;;19.90;37.50;;;;;;478951;247;1675;-75
2021/11/20 06:01:47;;;;;;;;;;;19.90;37.30;;;;;;478905;247;1084;-75
2021/11/20 06:03:49;;;;;;;;;;;19.90;37.40;;;;;;478961;247;948;-76
2021/11/20 06:05:49;;;;;;;;;;;20.10;37.20;;;;;;478914;247;1488;-75
2021/11/20 06:07:51;;;;;;;;;;;20.00;37.20;;;;;;478938;247;1062;-75
2021/11/20 06:09:52;;;;;;;;;;;20.10;37.20;;;;;;478991;247;959;-75
2021/11/20 06:11:53;;;;;;;;;;;20.10;37.10;;;;;;478833;247;2187;-75
2021/11/20 06:13:55;;;;;;;;;;;20.10;37.00;;;;;;478898;247;1188;-75
2021/11/20 06:15:56;;;;;;;;;;;20.30;36.90;;;;;;478932;247;1093;-75
2021/11/20 06:17:57;;;;;;;;;;;20.00;37.00;;;;;;478952;247;1135;-75
2021/11/20 06:19:59;;;;;;;;;;;20.10;37.20;;;;;;478953;247;952;-75
2021/11/20 06:22:00;;;;;;;;;;;20.00;37.30;;;;;;478939;247;1238;-75
2021/11/20 06:24:01;;;;;;;;;;;20.00;37.40;;;;;;478991;247;1050;-75
2021/11/20 06:26:03;;;;;;;;;;;20.20;37.00;;;;;;478876;247;1131;-75
2021/11/20 06:28:04;;;;;;;;;;;20.00;37.20;;;;;;478988;247;1089;-76
2021/11/20 06:30:06;;;;;;;;;;;20.40;37.10;;;;;;478950;247;1198;-75
2021/11/20 06:32:07;;;;;;;;;;;20.20;36.90;;;;;;478900;247;2136;-75
2021/11/20 06:34:08;;;;;;;;;;;20.20;37.00;;;;;;478942;247;1052;-75
2021/11/20 06:36:10;;;;;;;;;;;20.10;37.10;;;;;;478879;247;1104;-75
2021/11/20 06:38:11;;;;;;;;;;;20.40;36.70;;;;;;478937;247;1045;-75
2021/11/20 06:40:12;;;;;;;;;;;20.40;36.90;;;;;;478979;247;952;-75
2021/11/20 06:42:14;;;;;;;;;;;20.30;36.70;;;;;;478901;247;1104;-75
2021/11/20 06:44:15;;;;;;;;;;;20.40;36.80;;;;;;478949;247;958;-75
2021/11/20 06:46:17;;;;;;;;;;;20.30;36.70;;;;;;478884;247;1247;-75
2021/11/20 06:48:18;;;;;;;;;;;20.20;37.00;;;;;;478773;248;1120;-75
2021/11/20 06:50:19;;;;;;;;;;;20.00;37.20;;;;;;478947;247;943;-75
2021/11/20 06:52:21;;;;;;;;;;;20.20;37.20;;;;;;478900;247;2179;-75
2021/11/20 06:54:22;;;;;;;;;;;20.20;37.30;;;;;;478925;247;1077;-75
2021/11/20 06:56:27;;;;;;;;;;;20.30;36.80;;;;;;478925;247;1199;-75
2021/11/20 07:00:47;;;;;;;;;;;20.20;37.10;;;;;;478901;244;1130;-75
2021/11/20 07:02:49;;;;;;;;;;;20.20;37.10;;;;;;478953;247;1230;-75
2021/11/20 07:04:50;;;;;;;;;;;20.10;37.20;;;;;;478925;247;986;-75
2021/11/20 07:06:51;;;;;;;;;;;20.30;37.00;;;;;;478855;247;1206;-75
2021/11/20 07:08:53;;;;;;;;;;;20.10;37.20;;;;;;478914;247;1094;-75
2021/11/20 07:10:54;;;;;;;;;;;20.20;37.10;;;;;;478865;247;1070;-75
2021/11/20 07:12:55;;;;;;;;;;;20.20;37.20;;;;;;478834;247;2191;-75
2021/11/20 07:14:57;;;;;;;;;;;20.20;37.20;;;;;;478885;247;1174;-75
2021/11/20 07:16:58;;;;;;;;;;;20.20;37.10;;;;;;478874;247;1272;-75
2021/11/20 07:19:00;;;;;;;;;;;20.30;36.90;;;;;;478909;247;1157;-75
2021/11/20 07:21:02;;;;;;;;;;;20.20;37.20;;;;;;478930;247;1140;-76
2021/11/20 07:23:02;;;;;;;;;;;20.20;37.20;;;;;;478908;247;1165;-75
2021/11/20 07:25:04;;;;;;;;;;;20.00;37.50;;;;;;478985;247;960;-75
2021/11/20 07:27:05;;;;;;;;;;;20.20;37.20;;;;;;478980;247;1276;-75
2021/11/20 07:29:06;;;;;;;;;;;20.00;37.40;;;;;;478968;247;941;-75
2021/11/20 07:31:08;;;;;;;;;;;20.30;37.20;;;;;;478869;247;1192;-75
2021/11/20 07:33:09;;;;;;;;;;;20.20;37.20;;;;;;478889;247;2132;-75
2021/11/20 07:35:11;;;;;;;;;;;20.20;37.40;;;;;;478895;247;948;-75
2021/11/20 07:37:12;;;;;;;;;;;20.20;37.20;;;;;;478714;247;1251;-75
2021/11/20 07:39:13;;;;;;;;;;;20.10;37.30;;;;;;478880;247;1125;-75
2021/11/20 07:41:15;;;;;;;;;;;20.10;37.50;;;;;;478896;247;1219;-75
2021/11/20 07:43:16;;;;;;;;;;;20.10;37.40;;;;;;478950;247;1102;-75
2021/11/20 07:45:17;;;;;;;;;;;20.00;37.50;;;;;;478907;247;1149;-75
2021/11/20 07:47:19;;;;;;;;;;;20.00;37.60;;;;;;478866;247;1155;-75
2021/11/20 07:49:20;;;;;;;;;;;20.20;37.40;;;;;;478937;247;955;-76
2021/11/20 07:51:21;;;;;;;;;;;20.00;37.50;;;;;;478922;247;1220;-75
2021/11/20 07:53:24;;;;;;;;;;;20.10;37.60;;;;;;478906;248;2135;-75
2021/11/20 07:55:24;;;;;;;;;;;20.00;37.60;;;;;;478808;248;1433;-75
2021/11/20 07:57:25;;;;;;;;;;;20.00;37.70;;;;;;478823;247;1219;-75
2021/11/20 07:59:27;;;;;;;;;;;20.00;37.80;;;;;;478886;247;1118;-75
2021/11/20 08:01:28;;;;;;;;;;;20.00;37.80;;;;;;478873;247;1197;-75
2021/11/20 08:03:29;;;;;;;;;;;20.00;37.70;;;;;;478881;247;1197;-76
2021/11/20 08:05:31;;;;;;;;;;;20.00;37.60;;;;;;478947;247;1018;-75
2021/11/20 08:07:35;;;;;;;;;;;20.00;37.70;;;;;;478906;247;996;-75
2021/11/20 08:09:33;;;;;;;;;;;20.00;37.80;;;;;;478928;248;1414;-75
2021/11/20 08:11:35;;;;;;;;;;;20.00;37.90;;;;;;478910;247;975;-75
2021/11/20 08:13:37;;;;;;;;;;;20.00;37.80;;;;;;478910;247;2441;-75
2021/11/20 08:15:38;;;;;;;;;;;20.10;37.80;;;;;;478904;248;1486;-75
2021/11/20 08:17:39;;;;;;;;;;;20.00;37.80;;;;;;478856;247;1142;-76
2021/11/20 08:19:40;;;;;;;;;;;20.30;37.60;;;;;;478946;247;967;-75
2021/11/20 08:21:41;;;;;;;;;;;20.40;37.40;;;;;;478824;247;1218;-75
2021/11/20 08:23:43;;;;;;;;;;;20.50;36.90;;;;;;478911;247;964;-75
2021/11/20 08:25:44;;;;;;;;;;;20.40;37.20;;;;;;478872;247;1320;-76
2021/11/20 08:27:46;;;;;;;;;;;20.30;37.30;;;;;;478888;247;1133;-76
2021/11/20 08:29:48;;;;;;;;;;;20.10;37.50;;;;;;478883;247;1112;-75
2021/11/20 08:31:49;;;;;;;;;;;20.10;37.70;;;;;;478785;247;1708;-75
2021/11/20 08:33:50;;;;;;;;;;;20.10;37.80;;;;;;478885;247;2188;-76
2021/11/20 08:35:52;;;;;;;;;;;20.10;37.80;;;;;;478805;247;1117;-76
2021/11/20 08:37:53;;;;;;;;;;;20.00;38.00;;;;;;478875;247;1137;-76
2021/11/20 08:39:56;;;;;;;;;;;20.20;37.70;;;;;;478944;247;927;-75
2021/11/20 08:41:56;;;;;;;;;;;20.20;37.70;;;;;;478837;248;1467;-76
2021/11/20 08:43:57;;;;;;;;;;;20.40;37.60;;;;;;478970;247;1036;-76
2021/11/20 08:45:58;;;;;;;;;;;20.40;37.40;;;;;;478861;247;1147;-75
2021/11/20 08:48:00;;;;;;;;;;;20.30;37.60;;;;;;478936;247;1117;-75
2021/11/20 08:50:01;;;;;;;;;;;20.20;37.80;;;;;;478924;247;959;-76
2021/11/20 08:52:02;;;;;;;;;;;20.20;37.80;;;;;;478755;247;1221;-76
2021/11/20 08:54:04;;;;;;;;;;;20.10;37.90;;;;;;478958;247;958;-76
2021/11/20 08:56:05;;;;;;;;;;;20.00;38.00;;;;;;478858;247;1153;-76
2021/11/20 08:58:06;;;;;;;;;;;20.10;38.10;;;;;;478912;247;1128;-76
2021/11/20 09:00:08;;;;;;;;;;;20.10;38.00;;;;;;478900;247;1149;-75
2021/11/20 09:02:09;;;;;;;;;;;20.20;38.00;;;;;;478836;245;1332;-75
2021/11/20 09:04:11;;;;;;;;;;;20.20;37.90;;;;;;478884;247;1146;-75
2021/11/20 09:06:12;;;;;;;;;;;20.30;37.80;;;;;;478781;247;1175;-75
2021/11/20 09:08:13;;;;;;;;;;;20.30;37.60;;;;;;478979;247;1198;-75
2021/11/20 09:10:15;;;;;;;;;;;20.40;37.40;;;;;;478878;247;1137;-76
2021/11/20 09:12:16;;;;;;;;;;;20.50;37.50;;;;;;478890;247;2135;-76
2021/11/20 09:14:17;;;;;;;;;;;20.40;37.60;;;;;;478953;247;1165;-75
2021/11/20 09:16:18;;;;;;;;;;;20.60;37.20;;;;;;478852;247;1208;-76
2021/11/20 09:18:20;;;;;;;;;;;20.50;37.40;;;;;;478924;247;990;-76
2021/11/20 09:20:21;;;;;;;;;;;20.40;37.60;;;;;;478925;247;964;-75
2021/11/20 09:22:23;;;;;;;;;;;20.40;37.60;;;;;;478850;247;1221;-76
2021/11/20 09:24:24;;;;;;;;;;;20.40;37.60;;;;;;478981;247;1146;-76
2021/11/20 09:26:25;;;;;;;;;;;20.50;37.60;;;;;;478882;247;1211;-76
2021/11/20 09:28:27;;;;;;;;;;;20.30;37.70;;;;;;478964;247;1034;-76
2021/11/20 09:30:28;;;;;;;;;;;20.20;37.80;;;;;;478857;247;1088;-76
2021/11/20 09:32:29;;;;;;;;;;;20.30;37.70;;;;;;478818;247;2210;-76
2021/11/20 09:34:31;;;;;;;;;;;20.40;37.80;;;;;;478897;247;950;-75
2021/11/20 09:36:32;;;;;;;;;;;20.50;37.70;;;;;;478866;247;1235;-76
2021/11/20 09:38:33;;;;;;;;;;;20.40;37.60;;;;;;478943;247;1002;-75
2021/11/20 09:40:35;;;;;;;;;;;20.30;37.70;;;;;;478897;247;1230;-75
2021/11/20 09:42:36;;;;;;;;;;;20.30;38.00;;;;;;479060;247;1082;-75
2021/11/20 09:44:38;;;;;;;;;;;20.30;38.00;;;;;;478976;247;951;-75
2021/11/20 09:46:44;;;;;;;;;;;20.40;37.70;;;;;;478712;247;1122;-75
2021/11/20 09:48:40;;;;;;;;;;;20.60;37.60;;;;;;478460;248;1389;-75
2021/11/20 09:50:42;;;;;;;;;;;20.50;37.50;;;;;;478808;247;1220;-75
2021/11/20 09:52:43;;;;;;;;;;;20.80;37.30;;;;;;478890;249;2241;-75
2021/11/20 09:54:44;;;;;;;;;;;20.70;37.30;;;;;;478937;247;949;-76
2021/11/20 09:56:46;;;;;;;;;;;20.60;37.60;;;;;;478839;247;1073;-75
2021/11/20 09:58:47;;;;;;;;;;;20.50;37.80;;;;;;478905;247;956;-75
2021/11/20 10:00:48;;;;;;;;;;;20.40;37.90;;;;;;478922;247;966;-75
2021/11/20 10:02:50;;;;;;;;;;;20.60;37.60;;;;;;478876;247;1289;-75
2021/11/20 10:04:51;;;;;;;;;;;20.50;37.80;;;;;;478964;247;993;-75
2021/11/20 10:06:52;;;;;;;;;;;20.60;37.70;;;;;;478921;247;1220;-75
2021/11/20 10:08:54;;;;;;;;;;;20.70;37.50;;;;;;478894;247;1101;-75
2021/11/20 10:10:55;;;;;;;;;;;20.60;37.70;;;;;;478901;247;1169;-75
2021/11/20 10:12:56;;;;;;;;;;;20.60;37.70;;;;;;478870;247;2119;-75
2021/11/20 10:14:58;;;;;;;;;;;20.60;37.70;;;;;;478945;247;932;-75
2021/11/20 10:16:59;;;;;;;;;;;20.50;37.80;;;;;;478845;247;1199;-75
2021/11/20 10:19:00;;;;;;;;;;;20.70;37.80;;;;;;478947;247;964;-75
2021/11/20 10:21:02;;;;;;;;;;;20.50;37.90;;;;;;478905;247;1175;-75
2021/11/20 10:23:04;;;;;;;;;;;20.40;38.10;;;;;;478925;247;1178;-75
2021/11/20 10:25:05;;;;;;;;;;;20.60;38.00;;;;;;478955;247;980;-75
2021/11/20 10:27:06;;;;;;;;;;;20.70;38.00;;;;;;478797;247;1256;-75
2021/11/20 10:29:07;;;;;;;;;;;20.90;37.20;;;;;;478926;247;1238;-76
2021/11/20 10:31:10;;;;;;;;;;;20.90;37.50;;;;;;478873;247;1134;-76
2021/11/20 10:33:10;;;;;;;;;;;20.70;37.60;;;;;;478825;247;2209;-76
2021/11/20 10:35:11;;;;;;;;;;;20.70;37.80;;;;;;478929;247;1137;-75
2021/11/20 10:37:13;;;;;;;;;;;20.60;38.00;;;;;;478865;247;1197;-75
2021/11/20 10:39:14;;;;;;;;;;;20.70;37.80;;;;;;478983;247;1137;-75
2021/11/20 10:41:16;;;;;;;;;;;20.70;37.80;;;;;;478903;247;1345;-75
2021/11/20 10:43:17;;;;;;;;;;;20.70;37.80;;;;;;478918;247;1133;-75
2021/11/20 10:45:18;;;;;;;;;;;20.60;38.00;;;;;;478923;247;1168;-75
2021/11/20 10:47:21;;;;;;;;;;;20.80;37.90;;;;;;478828;247;1198;-75
2021/11/20 10:49:21;;;;;;;;;;;20.60;37.90;;;;;;478856;248;1887;-75
2021/11/20 10:51:25;;;;;;;;;;;20.90;37.80;;;;;;478881;247;1279;-75
2021/11/20 10:53:24;;;;;;;;;;;21.10;37.30;;;;;;478772;248;2131;-75
2021/11/20 10:55:25;;;;;;;;;;;20.90;37.50;;;;;;478976;247;1118;-75
2021/11/20 10:57:27;;;;;;;;;;;20.80;37.70;;;;;;478817;247;1139;-75
2021/11/20 10:59:28;;;;;;;;;;;20.70;38.00;;;;;;478973;247;1074;-75
2021/11/20 11:01:29;;;;;;;;;;;20.70;38.00;;;;;;478771;247;1243;-75
2021/11/20 11:03:32;;;;;;;;;;;20.90;37.70;;;;;;478954;247;1173;-75
2021/11/20 11:05:32;;;;;;;;;;;20.90;37.60;;;;;;478895;247;1431;-75
2021/11/20 11:07:34;;;;;;;;;;;20.80;38.00;;;;;;478829;247;1123;-75
2021/11/20 11:09:35;;;;;;;;;;;20.70;38.10;;;;;;478979;247;961;-75
2021/11/20 11:11:36;;;;;;;;;;;20.80;38.10;;;;;;478865;247;1248;-75
2021/11/20 11:13:38;;;;;;;;;;;20.90;37.60;;;;;;478859;247;2186;-75
2021/11/20 11:15:39;;;;;;;;;;;20.80;38.10;;;;;;478849;247;1217;-75
2021/11/20 11:17:41;;;;;;;;;;;21.10;37.50;;;;;;478879;247;1314;-75
2021/11/20 11:19:42;;;;;;;;;;;20.80;37.80;;;;;;478895;247;929;-76
2021/11/20 11:21:43;;;;;;;;;;;20.80;37.90;;;;;;478907;247;1093;-75
2021/11/20 11:23:45;;;;;;;;;;;20.60;38.30;;;;;;478904;247;1157;-75
2021/11/20 11:25:46;;;;;;;;;;;20.70;38.20;;;;;;478863;247;1121;-75
2021/11/20 11:27:48;;;;;;;;;;;20.70;38.30;;;;;;478830;247;1110;-75
2021/11/20 11:29:49;;;;;;;;;;;20.60;38.40;;;;;;478905;247;1107;-75
2021/11/20 11:31:51;;;;;;;;;;;20.50;38.40;;;;;;478841;247;1159;-75
2021/11/20 11:33:52;;;;;;;;;;;20.60;38.40;;;;;;478871;247;2143;-75
2021/11/20 11:35:53;;;;;;;;;;;20.80;38.10;;;;;;478932;247;1345;-75
2021/11/20 11:37:55;;;;;;;;;;;20.80;37.90;;;;;;478954;247;1246;-76
2021/11/20 11:39:56;;;;;;;;;;;20.90;37.80;;;;;;478926;247;1090;-76
2021/11/20 11:41:57;;;;;;;;;;;20.60;38.20;;;;;;478840;247;1167;-76
2021/11/20 11:43:59;;;;;;;;;;;20.50;38.40;;;;;;478844;247;1175;-76
2021/11/20 11:46:00;;;;;;;;;;;20.40;38.50;;;;;;478904;247;1286;-76
2021/11/20 11:48:01;;;;;;;;;;;20.40;38.60;;;;;;478882;247;1110;-76
2021/11/20 11:50:03;;;;;;;;;;;20.40;38.50;;;;;;478866;247;1234;-76
2021/11/20 11:52:04;;;;;;;;;;;20.30;38.60;;;;;;478719;247;1178;-75
2021/11/20 11:54:05;;;;;;;;;;;20.30;38.60;;;;;;478804;247;2231;-75
2021/11/20 11:56:07;;;;;;;;;;;20.30;38.60;;;;;;478902;247;1221;-75
2021/11/20 11:58:08;;;;;;;;;;;20.30;38.60;;;;;;478889;247;1121;-75
2021/11/20 12:00:09;;;;;;;;;;;20.20;38.60;;;;;;478844;247;958;-75
2021/11/20 12:02:11;;;;;;;;;;;20.40;38.30;;;;;;478767;247;1159;-75